Time;durP1;ratioP1;P1;durP2;ratioP2;P2;SDS_P1;SDS_P2;PMS_P1;PMS_P2;Temp;Humidity;BMP_temperature;BMP_pressure;BME280_temperature;BME280_humidity;BME280_pressure;Samples;Min_cycle;Max_cycle;Signal;HPM_P1;HPM_P2
2023/11/07 00:01:37;;;;;;;4.70;1.00;;;;;;;12.33;57.86;97086.13;5067903;28;20210;-72
2023/11/07 00:04:03;;;;;;;2.10;1.10;;;;;;;12.30;58.04;97086.47;5067664;28;20470;-72
2023/11/07 00:06:28;;;;;;;1.20;0.90;;;;;;;12.28;57.92;97089.25;5070323;28;20210;-71
2023/11/07 00:08:54;;;;;;;1.40;0.90;;;;;;;12.29;57.91;97095.31;5061373;28;20178;-74
2023/11/07 00:11:19;;;;;;;3.83;0.90;;;;;;;12.28;57.79;97098.94;5079443;28;20244;-71
2023/11/07 00:13:45;;;;;;;1.60;0.90;;;;;;;12.26;57.75;97096.47;5071349;28;20200;-74
2023/11/07 00:16:11;;;;;;;1.60;0.90;;;;;;;12.26;58.18;97100.91;5079758;28;20229;-72
2023/11/07 00:18:36;;;;;;;1.87;1.00;;;;;;;12.24;57.89;97097.63;5049716;28;20273;-72
2023/11/07 00:21:02;;;;;;;1.20;0.90;;;;;;;12.22;57.91;97092.53;5077665;28;21077;-72
2023/11/07 00:23:27;;;;;;;1.93;1.10;;;;;;;12.24;58.09;97093.19;5068987;28;20724;-72
2023/11/07 00:25:53;;;;;;;2.90;1.10;;;;;;;12.25;57.70;97104.50;5067686;28;20343;-71
2023/11/07 00:28:19;;;;;;;1.40;0.70;;;;;;;12.24;57.59;97102.88;5035774;28;20186;-71
2023/11/07 00:30:45;;;;;;;1.23;0.90;;;;;;;12.21;57.43;97090.88;5055742;28;20289;-72
2023/11/07 00:33:11;;;;;;;1.20;0.80;;;;;;;12.19;57.62;97111.25;5081363;28;20444;-74
2023/11/07 00:35:36;;;;;;;1.20;0.80;;;;;;;12.16;57.80;97103.69;5070580;28;20549;-72
2023/11/07 00:38:04;;;;;;;1.20;0.90;;;;;;;12.19;57.63;97110.44;5071155;28;20268;-73
2023/11/07 00:40:30;;;;;;;2.33;1.20;;;;;;;12.14;57.53;97109.13;5075521;28;20297;-74
2023/11/07 00:42:55;;;;;;;1.50;1.00;;;;;;;12.16;57.52;97097.63;5074334;28;20425;-72
2023/11/07 00:45:21;;;;;;;1.73;0.93;;;;;;;12.14;57.19;97090.72;5051222;28;20451;-72
2023/11/07 00:47:46;;;;;;;1.87;0.90;;;;;;;12.12;57.41;97095.31;5070776;28;20242;-73
2023/11/07 00:50:12;;;;;;;2.00;0.83;;;;;;;12.10;57.63;97099.91;5070931;28;20187;-70
2023/11/07 00:52:40;;;;;;;4.90;1.20;;;;;;;12.07;57.42;97105.53;5071214;28;20192;-73
2023/11/07 00:55:07;;;;;;;2.33;1.27;;;;;;;12.08;56.97;97109.78;5074292;28;20205;-70
2023/11/07 00:57:32;;;;;;;1.10;0.90;;;;;;;12.09;57.31;97098.31;5074726;28;20432;-74
2023/11/07 00:59:58;;;;;;;1.67;0.90;;;;;;;12.08;57.22;97106.31;5071769;28;20460;-72
2023/11/07 01:02:23;;;;;;;1.77;1.10;;;;;;;12.07;57.37;97104.69;5074275;28;20269;-73
2023/11/07 01:04:49;;;;;;;2.13;1.20;;;;;;;12.02;57.54;97115.69;5070293;28;20584;-71
2023/11/07 01:07:14;;;;;;;1.20;0.87;;;;;;;11.95;57.54;97115.50;5070523;28;20178;-73
2023/11/07 01:09:40;;;;;;;1.60;1.00;;;;;;;11.96;57.63;97111.06;5069727;28;20281;-73
2023/11/07 01:12:06;;;;;;;1.73;0.90;;;;;;;12.00;57.39;97111.59;5072734;28;20260;-71
2023/11/07 01:14:32;;;;;;;3.13;1.20;;;;;;;11.99;57.72;97110.75;5068305;28;20182;-72
2023/11/07 01:16:58;;;;;;;1.67;1.20;;;;;;;11.89;57.50;97104.81;5072681;28;20903;-72
2023/11/07 01:19:23;;;;;;;1.20;1.10;;;;;;;11.76;58.04;97113.19;5085221;28;20464;-72
2023/11/07 01:21:48;;;;;;;1.83;1.10;;;;;;;11.73;57.73;97116.94;5072186;28;20712;-71
2023/11/07 01:24:14;;;;;;;2.43;1.10;;;;;;;11.67;57.81;97125.47;5070355;28;20719;-70
2023/11/07 01:26:39;;;;;;;1.57;1.00;;;;;;;11.60;58.03;97127.91;5071985;28;20257;-73
2023/11/07 01:29:05;;;;;;;1.67;1.03;;;;;;;11.56;58.33;97118.69;5053727;28;20632;-72
2023/11/07 01:31:30;;;;;;;2.90;1.33;;;;;;;11.56;58.28;97120.53;5079079;28;20216;-72
2023/11/07 01:33:56;;;;;;;3.37;1.10;;;;;;;11.51;57.73;97121.00;5081112;28;20266;-74
2023/11/07 01:36:21;;;;;;;3.73;1.50;;;;;;;11.42;57.49;97119.31;5070525;28;20239;-72
2023/11/07 01:38:47;;;;;;;3.80;1.47;;;;;;;11.33;57.66;97110.63;5073763;28;20507;-70
2023/11/07 01:41:13;;;;;;;5.30;1.73;;;;;;;11.28;58.14;97120.75;5066381;28;20679;-71
2023/11/07 01:43:39;;;;;;;3.93;1.33;;;;;;;11.29;58.31;97119.78;5055362;28;20677;-73
2023/11/07 01:46:05;;;;;;;2.77;1.10;;;;;;;11.24;58.24;97116.81;5077661;28;20209;-73
2023/11/07 01:48:30;;;;;;;2.30;1.00;;;;;;;11.26;58.39;97117.47;5067387;28;20413;-74
2023/11/07 01:50:56;;;;;;;1.97;1.37;;;;;;;11.21;58.49;97113.50;5069195;28;20452;-72
2023/11/07 01:53:21;;;;;;;3.00;1.00;;;;;;;11.17;58.42;97112.22;5067398;28;20232;-70
2023/11/07 01:55:47;;;;;;;1.83;1.47;;;;;;;11.13;58.35;97105.63;5049386;28;20198;-72
2023/11/07 01:58:14;;;;;;;2.20;1.87;;;;;;;11.08;58.14;97113.16;5067802;28;20785;-71
2023/11/07 02:00:39;;;;;;;1.60;1.40;;;;;;;11.06;58.19;97117.75;5055395;28;20679;-73
2023/11/07 02:03:06;;;;;;;8.00;2.00;;;;;;;11.04;58.11;97117.88;5079160;28;20427;-71
2023/11/07 02:05:31;;;;;;;4.20;1.60;;;;;;;11.07;58.15;97116.75;5077855;28;21022;-73
2023/11/07 02:07:58;;;;;;;3.73;1.57;;;;;;;11.13;58.28;97107.44;5067047;28;20487;-72
2023/11/07 02:10:23;;;;;;;2.70;1.60;;;;;;;11.16;58.58;97107.94;5066965;28;20178;-71
2023/11/07 02:12:49;;;;;;;3.50;2.10;;;;;;;11.16;58.20;97100.06;5070902;28;20412;-71
2023/11/07 02:15:29;;;;;;;3.10;1.63;;;;;;;11.07;57.81;97103.66;5069063;28;20202;-70
2023/11/07 02:17:54;;;;;;;2.00;1.60;;;;;;;11.07;57.80;97116.75;5068970;28;20182;-71
2023/11/07 02:20:20;;;;;;;2.07;1.53;;;;;;;11.13;58.28;97115.31;5082047;28;21029;-73
2023/11/07 02:22:47;;;;;;;3.33;1.60;;;;;;;11.08;57.86;97123.66;5069212;28;20224;-72
2023/11/07 02:25:13;;;;;;;1.93;1.70;;;;;;;11.00;58.12;97124.44;5068887;28;20206;-70
2023/11/07 02:27:39;;;;;;;1.47;1.10;;;;;;;11.08;58.13;97123.66;5068847;28;20424;-73
2023/11/07 02:30:06;;;;;;;1.90;1.70;;;;;;;11.10;58.35;97121.66;5050848;28;20451;-71
2023/11/07 02:32:32;;;;;;;3.67;1.70;;;;;;;11.11;57.92;97123.31;5071208;28;20197;-69
2023/11/07 02:34:57;;;;;;;1.73;1.30;;;;;;;11.11;57.85;97123.31;5071041;28;20471;-71
2023/11/07 02:37:23;;;;;;;1.47;1.37;;;;;;;11.03;57.68;97123.28;5066526;28;20209;-71
2023/11/07 02:39:48;;;;;;;2.23;1.50;;;;;;;11.00;57.43;97131.47;5068958;28;20399;-71
2023/11/07 02:42:13;;;;;;;2.00;1.30;;;;;;;11.05;58.23;97130.00;5054449;28;20242;-70
2023/11/07 02:44:39;;;;;;;2.30;1.10;;;;;;;11.13;57.96;97131.84;5084905;28;20227;-71
2023/11/07 02:47:04;;;;;;;2.50;1.10;;;;;;;11.17;58.09;97132.34;5051990;28;20221;-72
2023/11/07 02:49:30;;;;;;;5.57;1.13;;;;;;;11.19;58.13;97136.47;5076406;28;20178;-71
2023/11/07 02:51:56;;;;;;;2.93;1.10;;;;;;;11.21;58.14;97124.00;5078724;28;20564;-71
2023/11/07 02:54:21;;;;;;;1.77;1.10;;;;;;;11.23;58.18;97123.88;5076343;28;20432;-70
2023/11/07 02:56:47;;;;;;;1.80;1.10;;;;;;;11.25;58.51;97118.44;5070263;28;20225;-71
2023/11/07 02:59:13;;;;;;;3.57;1.40;;;;;;;11.29;58.27;97120.59;5068153;28;20178;-73
2023/11/07 03:01:38;;;;;;;1.83;1.23;;;;;;;11.32;58.32;97114.22;5071155;28;20193;-72
2023/11/07 03:04:04;;;;;;;1.67;0.90;;;;;;;11.36;58.40;97116.38;5070883;28;20174;-72
2023/11/07 03:06:30;;;;;;;1.67;0.83;;;;;;;11.40;58.36;97113.44;5084408;28;20204;-70
2023/11/07 03:08:55;;;;;;;1.23;0.77;;;;;;;11.45;58.23;97113.75;5070794;28;20436;-73
2023/11/07 03:11:21;;;;;;;1.43;1.00;;;;;;;11.49;57.88;97115.91;5068294;28;20184;-71
2023/11/07 03:13:46;;;;;;;3.70;0.93;;;;;;;11.52;57.64;97110.34;5075891;28;20193;-71
2023/11/07 03:16:12;;;;;;;2.23;0.90;;;;;;;11.52;57.66;97112.97;5070002;28;20250;-71
2023/11/07 03:18:38;;;;;;;1.70;1.20;;;;;;;11.55;58.01;97117.06;5067861;28;20718;-70
2023/11/07 03:21:06;;;;;;;1.10;0.90;;;;;;;11.58;57.78;97113.31;5067421;28;20268;-71
2023/11/07 03:23:33;;;;;;;5.33;1.30;;;;;;;11.54;57.58;97118.03;5058090;28;21208;-71
2023/11/07 03:25:59;;;;;;;1.93;0.83;;;;;;;11.51;57.99;97113.94;5070193;28;20458;-70
2023/11/07 03:28:25;;;;;;;2.50;1.00;;;;;;;11.47;58.12;97128.34;5068043;28;20961;-71
2023/11/07 03:30:51;;;;;;;1.60;0.87;;;;;;;11.53;57.69;97119.03;5067209;28;20940;-70
2023/11/07 03:33:17;;;;;;;0.90;0.70;;;;;;;11.45;58.06;97114.59;5067219;28;20178;-70
2023/11/07 03:35:43;;;;;;;1.30;0.83;;;;;;;11.40;58.08;97116.88;5067424;28;20317;-71
2023/11/07 03:38:09;;;;;;;2.90;1.00;;;;;;;11.44;58.12;97117.38;5067091;28;20434;-69
2023/11/07 03:40:35;;;;;;;1.67;0.90;;;;;;;11.44;58.10;97120.81;5057251;28;20465;-70
2023/11/07 03:43:00;;;;;;;2.47;1.00;;;;;;;11.53;57.69;97122.47;5074392;28;20940;-71
2023/11/07 03:45:26;;;;;;;1.87;1.00;;;;;;;11.52;57.64;97126.09;5067481;28;20289;-71
2023/11/07 03:47:51;;;;;;;1.47;0.90;;;;;;;11.53;57.62;97127.72;5067360;28;20269;-71
2023/11/07 03:50:17;;;;;;;4.40;1.10;;;;;;;11.57;57.44;97132.66;5049618;28;20587;-71
2023/11/07 03:52:42;;;;;;;4.83;1.03;;;;;;;11.53;57.57;97119.03;5067096;28;20439;-72
2023/11/07 03:55:08;;;;;;;1.57;1.00;;;;;;;11.49;57.22;97126.41;5068015;28;20236;-71
2023/11/07 03:57:33;;;;;;;2.67;1.07;;;;;;;11.50;57.50;97127.22;5071974;28;20545;-71
2023/11/07 03:59:58;;;;;;;5.33;1.20;;;;;;;11.49;57.41;97126.41;5068384;28;20904;-72
2023/11/07 04:02:25;;;;;;;1.27;0.70;;;;;;;11.47;57.50;97124.94;5054729;28;20886;-71
2023/11/07 04:04:50;;;;;;;1.40;0.87;;;;;;;11.48;57.22;97124.75;5070393;28;20182;-72
2023/11/07 04:07:16;;;;;;;1.20;0.80;;;;;;;11.45;57.41;97130.34;5079773;28;20432;-71
2023/11/07 04:09:42;;;;;;;3.93;1.03;;;;;;;11.46;57.45;97133.78;5073909;28;20177;-73
2023/11/07 04:12:08;;;;;;;1.10;0.87;;;;;;;11.45;57.55;97132.97;5079005;28;20174;-71
2023/11/07 04:14:33;;;;;;;1.67;0.93;;;;;;;11.40;57.63;97135.22;5070822;28;20434;-71
2023/11/07 04:16:59;;;;;;;1.10;0.80;;;;;;;11.40;57.58;97137.84;5079145;28;20305;-72
2023/11/07 04:19:25;;;;;;;1.63;0.90;;;;;;;11.42;57.58;97135.91;5074099;28;20225;-72
2023/11/07 04:21:50;;;;;;;1.83;0.80;;;;;;;11.39;57.58;97146.72;5079005;28;20545;-72
2023/11/07 04:24:16;;;;;;;1.33;1.00;;;;;;;11.40;57.38;97140.47;5079976;28;20269;-73
2023/11/07 04:26:41;;;;;;;1.77;1.00;;;;;;;11.36;57.49;97141.78;5070778;28;20321;-72
2023/11/07 04:29:06;;;;;;;1.63;0.80;;;;;;;11.30;57.65;97139.78;5079318;28;20280;-73
2023/11/07 04:31:33;;;;;;;3.30;1.00;;;;;;;11.30;57.63;97137.16;5075092;28;20792;-72
2023/11/07 04:33:58;;;;;;;1.43;1.00;;;;;;;11.27;57.86;97146.19;5071537;28;20178;-71
2023/11/07 04:36:24;;;;;;;1.83;1.00;;;;;;;11.28;57.73;97126.00;5056352;28;20492;-70
2023/11/07 04:38:50;;;;;;;2.90;0.80;;;;;;;11.21;57.74;97126.63;5069259;28;20189;-72
2023/11/07 04:41:15;;;;;;;2.73;1.10;;;;;;;11.18;57.76;97129.59;5069839;28;20202;-71
2023/11/07 04:43:43;;;;;;;1.33;0.80;;;;;;;11.14;58.16;97130.88;5067281;28;20190;-72
2023/11/07 04:46:08;;;;;;;2.50;0.77;;;;;;;11.12;58.33;97113.66;5047184;28;20319;-73
2023/11/07 04:48:34;;;;;;;1.50;0.90;;;;;;;11.05;58.11;97127.38;5070388;28;20429;-73
2023/11/07 04:51:00;;;;;;;1.87;0.80;;;;;;;11.05;58.24;97118.72;5069396;28;20178;-70
2023/11/07 04:53:27;;;;;;;2.30;0.70;;;;;;;11.09;58.48;97120.03;5073453;28;20190;-73
2023/11/07 04:55:53;;;;;;;1.93;0.90;;;;;;;11.11;57.75;97122.50;5069914;28;20445;-72
2023/11/07 04:58:20;;;;;;;1.00;0.70;;;;;;;11.12;57.72;97122.34;5069822;28;20833;-70
2023/11/07 05:00:45;;;;;;;2.80;0.77;;;;;;;11.12;58.19;97124.16;5069639;28;20206;-74
2023/11/07 05:03:11;;;;;;;2.33;0.90;;;;;;;11.13;57.85;97113.50;5081980;28;20479;-72
2023/11/07 05:05:36;;;;;;;1.20;0.93;;;;;;;11.15;58.03;97123.84;5066192;28;20734;-71
2023/11/07 05:08:02;;;;;;;2.17;0.80;;;;;;;11.14;57.77;97116.94;5081660;28;20709;-71
2023/11/07 05:10:27;;;;;;;1.40;0.93;;;;;;;11.15;57.77;97119.41;5069711;28;20655;-73
2023/11/07 05:12:52;;;;;;;1.73;1.50;;;;;;;11.14;57.87;97123.00;5068678;28;20182;-72
2023/11/07 05:15:18;;;;;;;2.20;1.70;;;;;;;11.12;57.81;97127.59;5069595;28;20668;-70
2023/11/07 05:24:27;;;;;;;3.87;1.10;;;;;;;11.07;58.10;97137.75;5057194;28;20454;-73
2023/11/07 05:26:52;;;;;;;2.70;0.90;;;;;;;11.09;58.05;97135.75;5070113;28;20445;-72
2023/11/07 05:29:18;;;;;;;3.73;1.00;;;;;;;11.05;57.88;97134.44;5075616;28;20622;-73
2023/11/07 05:31:43;;;;;;;6.30;1.20;;;;;;;10.96;58.00;97130.16;5066769;28;22466;-73
2023/11/07 05:34:09;;;;;;;3.53;1.30;;;;;;;10.98;57.94;97128.16;5068067;28;20178;-72
2023/11/07 05:36:34;;;;;;;2.30;1.73;;;;;;;11.01;58.04;97133.09;5071891;28;20690;-71
2023/11/07 05:39:00;;;;;;;1.93;1.60;;;;;;;11.02;58.17;97126.88;5034486;28;20210;-74
2023/11/07 05:41:25;;;;;;;1.87;1.10;;;;;;;11.02;57.94;97125.09;5073212;28;20210;-71
2023/11/07 05:43:52;;;;;;;2.13;0.90;;;;;;;11.05;58.15;97122.16;5068867;28;20600;-73
2023/11/07 05:46:18;;;;;;;4.40;1.10;;;;;;;11.02;57.63;97125.09;5059122;28;20699;-72
2023/11/07 05:48:44;;;;;;;3.53;1.10;;;;;;;10.91;57.76;97126.19;5068810;28;20468;-71
2023/11/07 05:51:09;;;;;;;2.40;1.03;;;;;;;10.89;58.20;97122.09;5067168;28;20647;-72
2023/11/07 05:53:35;;;;;;;2.23;1.00;;;;;;;10.88;57.97;97138.78;5053493;28;20428;-72
2023/11/07 05:56:01;;;;;;;1.77;1.20;;;;;;;10.91;58.10;97126.19;5069864;28;20198;-71
2023/11/07 05:58:27;;;;;;;2.10;1.30;;;;;;;10.85;57.95;97133.84;5068532;28;20232;-73
2023/11/07 06:00:54;;;;;;;4.97;1.50;;;;;;;10.89;58.28;97133.38;5068273;28;20547;-72
2023/11/07 06:03:19;;;;;;;8.10;1.90;;;;;;;10.87;58.17;97130.09;5065611;28;20186;-70
2023/11/07 06:05:45;;;;;;;1.97;1.30;;;;;;;10.81;58.29;97143.84;5074100;28;20507;-73
2023/11/07 06:08:10;;;;;;;3.10;1.50;;;;;;;10.79;58.52;97137.91;5072915;28;20190;-73
2023/11/07 06:10:36;;;;;;;2.37;1.23;;;;;;;10.75;58.46;97132.19;5074365;28;20677;-73
2023/11/07 06:13:05;;;;;;;3.30;1.47;;;;;;;10.72;58.63;97137.72;5066432;28;20723;-71
2023/11/07 06:15:33;;;;;;;3.60;1.27;;;;;;;10.76;58.53;97140.84;5068255;28;20985;-70
2023/11/07 06:17:59;;;;;;;1.53;1.43;;;;;;;10.79;58.08;97148.41;5068691;28;20432;-71
2023/11/07 06:20:24;;;;;;;5.60;1.53;;;;;;;10.76;58.20;97153.94;5072337;28;20448;-72
2023/11/07 06:22:50;;;;;;;3.87;1.50;;;;;;;10.75;58.14;97154.94;5067960;28;20214;-71
2023/11/07 06:25:16;;;;;;;2.67;1.67;;;;;;;10.74;58.00;97155.91;5072423;28;20224;-72
2023/11/07 06:27:42;;;;;;;3.40;1.73;;;;;;;10.78;58.09;97154.63;5068807;28;20417;-70
2023/11/07 06:30:09;;;;;;;2.30;1.30;;;;;;;10.78;57.85;97161.66;5071110;28;20201;-71
2023/11/07 06:32:35;;;;;;;3.87;1.57;;;;;;;10.78;57.88;97167.72;5075124;28;20198;-70
2023/11/07 06:35:01;;;;;;;4.10;1.50;;;;;;;10.79;57.91;97177.25;5067302;28;20487;-72
2023/11/07 06:37:33;;;;;;;4.20;1.63;;;;;;;10.74;57.85;97169.00;5068114;28;20417;-71
2023/11/07 06:39:58;;;;;;;3.37;1.77;;;;;;;10.70;58.19;97172.94;5067934;28;20198;-72
2023/11/07 06:42:24;;;;;;;4.63;1.77;;;;;;;10.70;58.12;97170.31;5076812;28;20914;-71
2023/11/07 06:44:49;;;;;;;5.23;1.87;;;;;;;10.68;58.26;97164.41;5064826;28;20788;-75
2023/11/07 06:47:15;;;;;;;2.40;1.80;;;;;;;10.74;58.33;97171.63;5065042;28;20197;-71
2023/11/07 06:49:40;;;;;;;1.90;1.50;;;;;;;10.70;58.24;97172.94;5048648;28;20179;-73
2023/11/07 07:08:57;;;;;;;2.80;1.77;;;;;;;10.74;58.41;97184.75;5047735;28;21024;-71
2023/11/07 07:11:22;;;;;;;7.33;2.03;;;;;;;10.75;58.48;97186.38;5042954;28;20456;-71
2023/11/07 07:13:48;;;;;;;5.63;1.90;;;;;;;10.77;58.45;97188.88;5042662;28;20433;-71
2023/11/07 07:16:13;;;;;;;3.70;1.60;;;;;;;10.75;58.26;97186.38;5055599;28;20301;-72
2023/11/07 07:18:42;;;;;;;3.73;1.73;;;;;;;10.81;58.41;97188.41;5026936;28;20678;-71
2023/11/07 07:21:09;;;;;;;3.77;1.67;;;;;;;10.85;58.69;97181.84;5035503;28;22412;-72
2023/11/07 07:23:36;;;;;;;4.73;1.53;;;;;;;10.93;58.56;97188.94;5025891;28;20457;-72
2023/11/07 07:26:08;;;;;;;2.80;1.60;;;;;;;10.98;58.38;97191.94;5034835;28;20468;-71
2023/11/07 07:28:37;;;;;;;3.33;1.50;;;;;;;11.02;57.94;97188.03;5041770;28;20441;-72
2023/11/07 07:31:06;;;;;;;1.50;1.20;;;;;;;11.12;58.20;97197.59;5036897;28;20426;-71
2023/11/07 07:33:36;;;;;;;1.97;1.43;;;;;;;11.18;58.50;97189.94;5043729;28;20445;-72
2023/11/07 07:36:04;;;;;;;6.97;1.63;;;;;;;11.37;58.48;97188.03;5037846;28;20897;-71
2023/11/07 07:38:35;;;;;;;2.00;1.37;;;;;;;11.44;57.66;97196.09;5051247;28;20437;-72
2023/11/07 07:41:01;;;;;;;2.47;1.40;;;;;;;11.62;56.98;97198.63;5030566;28;20461;-69
2023/11/07 07:43:27;;;;;;;2.80;1.27;;;;;;;11.43;57.04;97192.66;5051441;28;20544;-70
2023/11/07 07:45:55;;;;;;;10.43;1.43;;;;;;;11.40;57.06;97202.66;5030655;28;20454;-72
2023/11/07 07:48:20;;;;;;;2.80;1.20;;;;;;;11.43;57.15;97197.06;5033540;28;20442;-70
2023/11/07 07:50:46;;;;;;;3.60;1.33;;;;;;;11.45;57.05;97195.94;5026984;28;20442;-69
2023/11/07 07:53:15;;;;;;;2.13;1.10;;;;;;;11.63;57.21;97195.84;5048176;28;20198;-71
2023/11/07 07:55:44;;;;;;;5.27;1.27;;;;;;;11.78;57.16;97197.88;5047199;28;20464;-69
2023/11/07 07:58:10;;;;;;;5.17;1.43;;;;;;;12.17;57.09;97207.00;5047877;28;22159;-70
2023/11/07 08:00:37;;;;;;;6.07;1.43;;;;;;;12.36;55.96;97195.34;5045468;28;20954;-71
2023/11/07 08:03:11;;;;;;;1.93;1.00;;;;;;;12.51;55.37;97188.44;5046911;28;20527;-69
2023/11/07 08:05:39;;;;;;;2.03;1.30;;;;;;;12.66;54.99;97185.97;5050590;28;20965;-72
2023/11/07 08:08:08;;;;;;;2.63;1.40;;;;;;;12.81;55.17;97182.66;5050244;28;20457;-70
2023/11/07 08:10:34;;;;;;;1.30;1.03;;;;;;;12.73;54.35;97178.25;5041494;28;20933;-72
2023/11/07 08:12:59;;;;;;;4.73;1.27;;;;;;;12.70;54.13;97187.28;5045934;28;20436;-71
2023/11/07 08:15:26;;;;;;;5.87;1.00;;;;;;;12.83;53.84;97192.03;5008359;28;20637;-71
2023/11/07 08:17:53;;;;;;;1.20;1.00;;;;;;;12.84;53.92;97182.34;5026175;28;20191;-72
2023/11/07 08:20:22;;;;;;;1.10;0.90;;;;;;;12.80;54.37;97183.66;5029433;28;20810;-70
2023/11/07 08:22:48;;;;;;;2.10;0.90;;;;;;;12.98;53.95;97178.19;5043924;28;20513;-69
2023/11/07 08:25:17;;;;;;;1.40;1.07;;;;;;;13.16;54.02;97185.88;5047970;28;20976;-70
2023/11/07 08:27:44;;;;;;;3.80;1.07;;;;;;;13.29;52.49;97183.53;5047835;28;20647;-71
2023/11/07 08:30:14;;;;;;;2.27;1.00;;;;;;;13.63;52.96;97186.88;5048579;28;20425;-71
2023/11/07 08:32:43;;;;;;;3.43;1.10;;;;;;;13.82;52.25;97191.69;5041504;28;20775;-72
2023/11/07 08:35:15;;;;;;;1.53;1.00;;;;;;;13.65;51.70;97196.22;5027238;28;20489;-72
2023/11/07 08:37:47;;;;;;;5.80;1.10;;;;;;;13.60;51.77;97188.06;5044241;28;20445;-71
2023/11/07 08:40:16;;;;;;;2.80;1.00;;;;;;;13.60;52.02;97192.47;5040607;28;20473;-70
2023/11/07 08:42:45;;;;;;;4.33;1.23;;;;;;;13.67;51.58;97193.44;5048646;28;20472;-71
2023/11/07 08:45:18;;;;;;;1.73;1.10;;;;;;;13.74;51.69;97193.56;5044725;28;21567;-70
2023/11/07 08:47:56;;;;;;;2.73;1.27;;;;;;;13.81;51.64;97183.97;5044839;28;20456;-71
2023/11/07 08:50:22;;;;;;;1.70;1.20;;;;;;;13.78;51.52;97190.44;5032442;28;20430;-72
2023/11/07 08:52:49;;;;;;;2.70;0.97;;;;;;;13.85;51.68;97194.97;5047984;28;20421;-71
2023/11/07 08:55:16;;;;;;;4.53;1.30;;;;;;;13.91;51.33;97192.47;5047695;28;20433;-73
2023/11/07 08:57:44;;;;;;;3.40;1.13;;;;;;;14.12;51.32;97196.28;5048711;28;20433;-71
2023/11/07 09:00:12;;;;;;;1.20;0.80;;;;;;;14.17;50.79;97199.22;5037847;28;20471;-71
2023/11/07 09:02:38;;;;;;;2.93;1.00;;;;;;;14.31;50.44;97196.84;5026252;28;20444;-70
2023/11/07 09:05:07;;;;;;;1.50;0.93;;;;;;;14.37;50.25;97204.03;5045305;28;20974;-69
2023/11/07 09:07:33;;;;;;;2.10;1.20;;;;;;;14.38;50.28;97205.66;5022578;28;20469;-71
2023/11/07 09:10:00;;;;;;;3.23;1.10;;;;;;;14.42;50.27;97214.88;5046493;28;20932;-71
2023/11/07 09:12:25;;;;;;;2.40;0.97;;;;;;;14.51;49.74;97211.16;4988469;28;1165470;-71
2023/11/07 09:14:51;;;;;;;2.43;1.10;;;;;;;14.39;49.96;97213.41;5046175;28;20653;-73
2023/11/07 09:17:16;;;;;;;5.03;1.40;;;;;;;14.43;49.55;97219.16;5030381;28;20207;-73
2023/11/07 09:19:42;;;;;;;2.10;1.10;;;;;;;14.53;49.69;97219.72;5049365;28;20207;-70
2023/11/07 09:22:09;;;;;;;2.53;1.30;;;;;;;14.63;49.93;97219.50;5048746;28;20277;-70
2023/11/07 09:24:35;;;;;;;2.50;1.27;;;;;;;14.68;49.26;97219.78;5044353;28;20196;-71
2023/11/07 09:27:00;;;;;;;2.00;0.90;;;;;;;14.73;49.39;97217.44;5046453;28;20472;-70
2023/11/07 09:29:27;;;;;;;1.90;1.07;;;;;;;14.72;49.15;97212.38;5024965;28;20187;-70
2023/11/07 09:31:53;;;;;;;2.57;1.07;;;;;;;14.84;49.19;97223.28;5048838;28;20195;-71
2023/11/07 09:34:22;;;;;;;1.73;0.90;;;;;;;14.82;48.59;97223.47;5043885;28;21009;-69
2023/11/07 09:36:48;;;;;;;5.17;0.90;;;;;;;14.82;48.71;97223.47;5024163;28;20450;-70
2023/11/07 09:39:13;;;;;;;1.20;0.90;;;;;;;15.03;49.02;97219.31;5048032;28;21128;-70
2023/11/07 09:41:42;;;;;;;2.70;0.97;;;;;;;15.16;48.40;97222.16;5040501;28;20219;-72
2023/11/07 09:44:10;;;;;;;3.80;1.07;;;;;;;15.11;48.56;97219.25;5030643;28;20187;-71
2023/11/07 09:46:36;;;;;;;2.77;0.90;;;;;;;15.27;48.29;97214.78;5049120;28;20449;-71
2023/11/07 09:49:01;;;;;;;1.00;0.83;;;;;;;15.25;47.58;97216.81;5048167;28;20428;-70
2023/11/07 09:51:27;;;;;;;2.70;1.00;;;;;;;15.48;47.58;97216.69;5033388;28;20419;-71
2023/11/07 09:53:53;;;;;;;1.27;0.90;;;;;;;15.60;47.23;97215.22;5025321;28;20190;-72
2023/11/07 09:56:22;;;;;;;1.20;0.80;;;;;;;15.46;46.73;97216.88;5034954;28;20241;-71
2023/11/07 09:58:50;;;;;;;2.27;1.00;;;;;;;15.69;47.17;97213.31;5031203;28;20452;-70
2023/11/07 10:01:16;;;;;;;2.27;0.90;;;;;;;15.80;46.65;97215.47;5046954;28;20514;-70
2023/11/07 10:03:43;;;;;;;5.00;0.70;;;;;;;15.80;46.35;97212.03;5042266;28;20442;-71
2023/11/07 10:06:08;;;;;;;2.77;0.90;;;;;;;15.80;45.80;97215.47;5046304;28;20211;-71
2023/11/07 10:08:34;;;;;;;1.07;0.73;;;;;;;15.69;45.54;97207.22;5049374;28;20437;-70
2023/11/07 10:11:14;;;;;;;3.10;0.70;;;;;;;15.75;45.63;97217.84;5048361;28;20840;-70
2023/11/07 10:14:00;;;;;;;1.57;0.80;;;;;;;15.84;45.68;97207.19;5046460;28;20190;-72
2023/11/07 10:16:36;;;;;;;8.93;1.00;;;;;;;15.83;46.05;97203.69;5045145;28;20448;-73
2023/11/07 10:19:04;;;;;;;2.40;0.90;;;;;;;16.11;45.74;97201.22;5038024;28;20992;-71
2023/11/07 10:21:34;;;;;;;1.10;0.70;;;;;;;15.88;44.54;97205.84;5041423;28;20464;-72
2023/11/07 10:24:00;;;;;;;1.73;0.60;;;;;;;16.02;44.91;97210.25;5044004;28;20436;-70
2023/11/07 10:26:26;;;;;;;1.30;0.70;;;;;;;16.56;45.05;97200.19;5039965;28;20798;-72
2023/11/07 10:29:13;;;;;;;2.70;0.70;;;;;;;16.66;43.69;97219.19;5046106;28;20183;-73
2023/11/07 10:31:41;;;;;;;1.47;0.60;;;;;;;16.72;43.33;97204.38;5046821;28;20512;-72
2023/11/07 10:34:15;;;;;;;2.80;0.63;;;;;;;16.60;42.98;97209.38;5046294;28;20429;-70
2023/11/07 10:36:41;;;;;;;2.40;0.60;;;;;;;16.65;43.05;97211.47;5034789;28;20969;-72
2023/11/07 10:39:16;;;;;;;1.50;0.83;;;;;;;16.48;43.26;97208.25;5038153;28;20419;-71
2023/11/07 10:41:43;;;;;;;2.53;0.67;;;;;;;16.34;43.78;97212.59;5048293;28;20529;-71
2023/11/07 10:44:35;;;;;;;1.40;1.07;;;;;;;16.46;43.76;97210.28;5045585;28;20430;-72
2023/11/07 10:47:00;;;;;;;1.20;0.90;;;;;;;16.34;43.54;97210.78;5020621;28;20489;-72
2023/11/07 10:49:26;;;;;;;3.27;0.70;;;;;;;16.12;43.78;97217.88;5041744;28;20851;-71
2023/11/07 10:51:52;;;;;;;1.00;0.80;;;;;;;16.27;43.79;97225.75;5041617;28;20195;-70
2023/11/07 10:54:21;;;;;;;3.03;0.63;;;;;;;16.24;43.76;97220.88;5046728;28;20265;-70
2023/11/07 10:56:48;;;;;;;3.17;0.80;;;;;;;15.93;44.51;97216.66;5048166;28;20450;-70
2023/11/07 10:59:24;;;;;;;2.80;0.80;;;;;;;15.79;45.09;97213.81;5047934;28;20878;-72
2023/11/07 11:01:51;;;;;;;1.20;0.60;;;;;;;15.91;45.37;97218.66;5029222;28;20417;-71
2023/11/07 11:04:31;;;;;;;2.33;0.77;;;;;;;15.95;45.76;97212.81;5028764;28;20516;-72
2023/11/07 11:07:02;;;;;;;2.10;0.73;;;;;;;15.91;46.24;97216.03;5030359;28;20454;-71
2023/11/07 11:09:27;;;;;;;1.50;0.70;;;;;;;15.76;46.77;97213.38;5042795;28;20425;-71
2023/11/07 11:11:54;;;;;;;2.50;1.03;;;;;;;15.57;47.43;97220.88;5022894;28;20513;-69
2023/11/07 11:14:20;;;;;;;0.90;0.70;;;;;;;15.52;47.99;97221.41;5025051;28;20252;-70
2023/11/07 11:16:50;;;;;;;1.87;0.80;;;;;;;15.47;48.83;97223.81;5039812;28;20453;-71
2023/11/07 11:19:35;;;;;;;1.47;0.80;;;;;;;15.43;50.07;97224.38;5047287;28;20194;-71
2023/11/07 11:22:25;;;;;;;1.00;0.80;;;;;;;15.42;50.33;97220.09;5043986;28;20441;-71
2023/11/07 11:24:53;;;;;;;1.13;0.90;;;;;;;15.36;51.17;97232.19;5032868;28;20429;-70
2023/11/07 11:27:23;;;;;;;4.00;0.80;;;;;;;15.24;50.76;97225.72;5034637;28;20447;-71
2023/11/07 11:29:51;;;;;;;2.13;1.10;;;;;;;15.29;51.55;97223.34;5011417;28;20423;-69
2023/11/07 11:32:28;;;;;;;1.20;0.83;;;;;;;15.25;51.64;97214.16;5028503;28;20541;-71
2023/11/07 11:35:11;;;;;;;1.20;0.73;;;;;;;15.22;52.12;97217.16;5036082;28;20430;-72
2023/11/07 11:38:12;;;;;;;1.00;0.77;;;;;;;15.20;52.39;97215.53;5039841;28;20450;-69
2023/11/07 11:40:59;;;;;;;1.53;1.00;;;;;;;15.25;52.64;97220.25;5046247;28;20552;-71
2023/11/07 11:43:28;;;;;;;1.63;0.90;;;;;;;15.52;52.41;97217.97;5043274;28;20458;-72
2023/11/07 11:45:55;;;;;;;1.10;0.70;;;;;;;15.68;51.70;97209.03;5037349;28;21169;-71
2023/11/07 11:48:49;;;;;;;1.83;0.97;;;;;;;15.95;51.55;97206.72;5046809;28;20835;-70
2023/11/07 11:51:38;;;;;;;0.90;0.60;;;;;;;16.11;49.98;97205.66;5042094;28;20422;-69
2023/11/07 11:54:08;;;;;;;1.00;0.70;;;;;;;16.28;49.35;97206.25;5042682;28;20475;-70
2023/11/07 11:56:38;;;;;;;1.20;0.60;;;;;;;16.26;49.01;97213.53;5040966;28;20949;-71
2023/11/07 11:59:04;;;;;;;1.93;0.90;;;;;;;16.16;47.78;97213.03;5029124;28;20426;-69